Time;durP1;ratioP1;P1;durP2;ratioP2;P2;SDS_P1;SDS_P2;PMS_P1;PMS_P2;Temp;Humidity;BMP_temperature;BMP_pressure;BME280_temperature;BME280_humidity;BME280_pressure;Samples;Min_cycle;Max_cycle;Signal;HPM_P1;HPM_P2
2022/04/10 00:01:01;;;;;;;;;0.00;0.00;;;;;5.30;72.88;-18611.94;4970461;28;11016;-69
2022/04/10 00:03:28;;;;;;;;;7.50;6.00;;;;;5.31;72.69;-18612.41;4971693;28;10892;-69
2022/04/10 00:05:55;;;;;;;;;2.00;2.00;;;;;5.22;72.09;-18609.81;4971925;28;11274;-69
2022/04/10 00:08:21;;;;;;;;;1.50;1.50;;;;;5.29;72.10;-18611.63;4963459;28;11134;-69
2022/04/10 00:10:48;;;;;;;;;1.00;0.50;;;;;5.39;72.47;-18614.66;4963137;28;10883;-69
2022/04/10 00:13:15;;;;;;;;;1.00;1.00;;;;;5.31;71.65;-18612.25;4969746;28;11079;-69
2022/04/10 00:15:42;;;;;;;;;0.00;0.00;;;;;5.31;71.31;-18612.41;4971303;28;11132;-69
2022/04/10 00:18:09;;;;;;;;;1.00;0.00;;;;;5.36;71.48;-18613.75;4970059;28;11018;-69
2022/04/10 00:20:36;;;;;;;;;0.00;0.00;;;;;5.34;71.30;-18613.16;4970852;28;10913;-69
2022/04/10 00:23:04;;;;;;;;;0.00;0.00;;;;;5.31;71.79;-18612.41;4971202;28;10825;-69
2022/04/10 00:25:31;;;;;;;;;0.00;0.00;;;;;5.36;71.63;-18613.91;4971565;28;11542;-70
2022/04/10 00:27:57;;;;;;;;;0.00;0.00;;;;;5.35;71.45;-18613.59;4987175;28;11591;-69
2022/04/10 00:30:24;;;;;;;;;0.25;0.25;;;;;5.30;70.93;-18611.94;4981808;28;10983;-70
2022/04/10 00:32:52;;;;;;;;;0.00;0.00;;;;;5.34;71.54;-18613.31;4974171;28;11005;-69
2022/04/10 00:35:19;;;;;;;;;0.00;0.00;;;;;5.32;71.65;-18612.69;4974606;28;11102;-69
2022/04/10 00:37:47;;;;;;;;;0.50;0.00;;;;;5.23;71.53;-18610.13;4988962;28;10895;-69
2022/04/10 00:40:13;;;;;;;;;0.00;0.00;;;;;5.22;71.41;-18609.69;4987242;28;10899;-69
2022/04/10 00:42:47;;;;;;;;;0.00;0.00;;;;;5.31;71.14;-18612.25;4974526;28;10970;-69
2022/04/10 00:45:14;;;;;;;;;0.00;0.00;;;;;5.33;71.13;-18612.84;4989765;28;10962;-69
2022/04/10 00:47:44;;;;;;;;;0.00;0.00;;;;;5.21;71.19;-18609.53;4970668;28;11066;-69
2022/04/10 00:50:12;;;;;;;;;0.00;0.00;;;;;5.22;71.43;-18609.81;4971668;28;11177;-69
2022/04/10 00:52:44;;;;;;;;;0.00;0.00;;;;;5.21;71.42;-18609.38;4977041;28;11121;-69
2022/04/10 00:55:10;;;;;;;;;0.00;0.00;;;;;5.20;71.31;-18609.06;4970797;28;11135;-69
2022/04/10 00:57:38;;;;;;;;;0.00;0.00;;;;;5.18;71.86;-18608.47;4969786;28;10968;-69
2022/04/10 01:00:10;;;;;;;;;0.00;0.00;;;;;5.14;72.25;-18607.41;4988717;28;11003;-69
2022/04/10 01:02:38;;;;;;;;;0.00;0.00;;;;;5.09;72.48;-18605.75;4964395;28;10891;-69
2022/04/10 01:05:06;;;;;;;;;0.00;0.00;;;;;5.00;72.81;-18603.03;4973107;28;11026;-69
2022/04/10 01:07:33;;;;;;;;;0.00;0.00;;;;;4.95;72.85;-18601.81;4988947;28;10947;-69
2022/04/10 01:09:59;;;;;;;;;1.25;0.00;;;;;4.89;73.44;-18600.00;4973564;28;10988;-69
2022/04/10 01:12:26;;;;;;;;;0.00;0.00;;;;;4.82;73.81;-18597.88;4972232;28;10963;-69
2022/04/10 01:14:57;;;;;;;;;0.00;0.00;;;;;4.79;73.98;-18596.97;4974545;28;10959;-69
2022/04/10 01:17:32;;;;;;;;;0.00;0.00;;;;;4.80;74.35;-18597.13;4974993;28;10982;-69
2022/04/10 01:19:59;;;;;;;;;0.00;0.00;;;;;4.83;73.26;-18598.19;4973397;28;11034;-69
2022/04/10 01:22:33;;;;;;;;;0.00;0.00;;;;;4.84;73.36;-18598.47;4972035;28;10997;-69
2022/04/10 01:25:06;;;;;;;;;0.00;0.00;;;;;4.89;73.20;-18600.00;4984222;28;10961;-69
2022/04/10 01:27:37;;;;;;;;;0.00;0.00;;;;;4.96;72.70;-18601.97;4988007;28;10979;-69
2022/04/10 01:30:06;;;;;;;;;3.00;1.00;;;;;4.92;72.51;-18600.75;4962627;28;11252;-69
2022/04/10 01:32:32;;;;;;;;;0.00;0.00;;;;;4.93;72.67;-18601.06;4961304;28;11104;-69
2022/04/10 01:35:01;;;;;;;;;0.00;0.00;;;;;4.90;72.41;-18600.16;4983934;28;10969;-69
2022/04/10 01:37:31;;;;;;;;;0.00;0.00;;;;;4.97;72.08;-18602.25;4980101;28;11068;-69
2022/04/10 01:39:58;;;;;;;;;0.00;0.00;;;;;4.92;71.76;-18600.91;4987613;28;11030;-70
2022/04/10 01:42:25;;;;;;;;;0.25;0.00;;;;;4.91;72.05;-18600.44;4988552;28;11096;-69
2022/04/10 01:44:52;;;;;;;;;0.00;0.00;;;;;4.91;71.74;-18600.44;4971591;28;10974;-69
2022/04/10 01:47:19;;;;;;;;;0.00;0.00;;;;;4.90;72.30;-18600.16;4976664;28;10955;-69
2022/04/10 01:49:46;;;;;;;;;0.00;0.00;;;;;4.96;72.12;-18601.97;4973237;28;11082;-70
2022/04/10 01:52:13;;;;;;;;;0.00;0.00;;;;;4.87;71.81;-18599.22;4980509;28;11050;-69
2022/04/10 01:54:40;;;;;;;;;0.00;0.00;;;;;4.79;72.07;-18596.81;4988383;28;11076;-69
2022/04/10 01:57:08;;;;;;;;;0.25;0.25;;;;;4.73;72.55;-18595.00;4986919;28;11050;-69
2022/04/10 01:59:35;;;;;;;;;0.00;0.00;;;;;4.71;72.97;-18594.41;4973174;28;11203;-69
2022/04/10 02:02:02;;;;;;;;;0.25;0.00;;;;;4.74;72.96;-18595.31;4987550;28;11055;-70
2022/04/10 02:04:29;;;;;;;;;0.00;0.00;;;;;4.68;72.97;-18593.47;4988077;28;11062;-69
2022/04/10 02:06:56;;;;;;;;;0.00;0.00;;;;;4.66;73.50;-18593.03;4986698;28;11240;-69
2022/04/10 02:09:24;;;;;;;;;0.00;0.00;;;;;4.67;73.08;-18593.34;4972320;28;11149;-69
2022/04/10 02:11:52;;;;;;;;;0.00;0.00;;;;;4.67;73.15;-18593.34;4988358;28;10981;-70
2022/04/10 02:14:18;;;;;;;;;0.00;0.00;;;;;4.60;73.25;-18591.38;4985493;28;11124;-69
2022/04/10 02:16:45;;;;;;;;;0.00;0.00;;;;;4.58;73.28;-18590.75;4977170;28;11088;-69
2022/04/10 02:19:12;;;;;;;;;0.25;0.25;;;;;4.53;73.33;-18589.25;4987619;28;11136;-69
2022/04/10 02:21:38;;;;;;;;;0.25;0.25;;;;;4.55;73.16;-18589.72;4969381;28;11057;-69
2022/04/10 02:24:05;;;;;;;;;0.00;0.00;;;;;4.53;73.24;-18589.25;4969474;28;10990;-69
2022/04/10 02:26:33;;;;;;;;;0.00;0.00;;;;;4.48;73.56;-18587.59;4986572;28;11059;-69
2022/04/10 02:29:00;;;;;;;;;1.00;1.00;;;;;4.42;74.34;-18585.91;4987989;28;10981;-69
2022/04/10 02:31:27;;;;;;;;;0.00;0.00;;;;;4.41;74.80;-18585.47;4986604;28;11155;-69
2022/04/10 02:33:53;;;;;;;;;0.00;0.00;;;;;4.37;75.00;-18584.25;4987704;28;11118;-69
2022/04/10 02:36:20;;;;;;;;;1.00;0.00;;;;;4.35;75.57;-18583.81;4970169;28;11213;-69
2022/04/10 02:38:46;;;;;;;;;0.00;0.00;;;;;4.35;75.12;-18583.81;4974412;28;11194;-69
2022/04/10 02:41:18;;;;;;;;;0.00;0.00;;;;;4.33;75.14;-18583.34;4971642;28;11055;-69
2022/04/10 02:43:44;;;;;;;;;0.00;0.00;;;;;4.26;74.99;-18581.22;4971281;28;11200;-69
2022/04/10 02:46:11;;;;;;;;;2.00;1.00;;;;;4.21;75.51;-18579.56;4986195;28;11257;-69
2022/04/10 02:48:42;;;;;;;;;0.00;0.00;;;;;4.08;75.22;-18575.78;4976938;28;11459;-68
2022/04/10 02:51:13;;;;;;;;;0.00;0.00;;;;;4.02;76.27;-18573.97;4983708;28;11051;-68
2022/04/10 02:53:39;;;;;;;;;1.00;0.50;;;;;4.03;76.87;-18574.28;4959958;28;11377;-68
2022/04/10 02:56:06;;;;;;;;;0.25;0.25;;;;;4.00;77.18;-18573.50;4971146;28;11234;-68
2022/04/10 02:58:33;;;;;;;;;0.00;0.00;;;;;3.99;77.12;-18573.22;4986540;28;11496;-68
2022/04/10 03:01:02;;;;;;;;;0.00;0.00;;;;;4.04;76.71;-18574.41;4978930;28;11208;-68
2022/04/10 03:03:31;;;;;;;;;0.75;0.75;;;;;3.97;76.76;-18572.59;4986540;28;11349;-68
2022/04/10 03:06:00;;;;;;;;;0.75;0.75;;;;;3.90;77.26;-18570.34;4987070;28;11146;-68
2022/04/10 03:08:27;;;;;;;;;0.50;0.00;;;;;3.84;77.29;-18568.53;4986357;28;11524;-68
2022/04/10 03:10:53;;;;;;;;;0.75;0.00;;;;;3.78;78.21;-18566.72;4986801;28;11186;-68
2022/04/10 03:13:20;;;;;;;;;2.00;1.00;;;;;3.73;77.99;-18565.34;4970129;28;11842;-68
2022/04/10 03:15:52;;;;;;;;;0.00;0.00;;;;;3.69;78.16;-18564.13;4986968;28;11455;-68
2022/04/10 03:18:20;;;;;;;;;0.00;0.00;;;;;3.65;78.58;-18563.06;4970043;28;11453;-68
2022/04/10 03:20:46;;;;;;;;;0.00;0.00;;;;;3.67;78.51;-18563.53;4950291;28;11533;-68
2022/04/10 03:23:14;;;;;;;;;0.00;0.00;;;;;3.65;78.99;-18563.06;4967720;28;11510;-68
2022/04/10 03:25:41;;;;;;;;;0.75;0.00;;;;;3.55;78.79;-18560.03;4970530;28;11459;-68
2022/04/10 03:28:07;;;;;;;;;0.00;0.00;;;;;3.53;79.47;-18559.44;4969788;28;11469;-68
2022/04/10 03:30:35;;;;;;;;;0.00;0.00;;;;;3.50;79.21;-18558.38;4985942;28;11472;-68
2022/04/10 03:33:01;;;;;;;;;0.00;0.00;;;;;3.54;79.53;-18559.75;4986330;28;11595;-68
2022/04/10 03:35:28;;;;;;;;;0.75;0.75;;;;;3.47;79.54;-18557.63;4970653;28;12189;-69
2022/04/10 03:37:56;;;;;;;;;0.50;0.50;;;;;3.45;79.72;-18556.88;4954163;28;11498;-68
2022/04/10 03:40:23;;;;;;;;;0.00;0.00;;;;;3.48;79.91;-18557.78;4975013;28;11493;-69
2022/04/10 03:42:52;;;;;;;;;3.50;1.25;;;;;3.46;79.57;-18557.16;4967135;28;11499;-69
2022/04/10 03:45:18;;;;;;;;;0.00;0.00;;;;;3.41;79.64;-18555.81;4984318;28;11460;-69
2022/04/10 03:47:47;;;;;;;;;1.75;0.50;;;;;3.42;80.07;-18555.94;4986279;28;11481;-69
2022/04/10 03:50:20;;;;;;;;;2.00;1.50;;;;;3.40;80.33;-18555.50;4969850;28;11601;-68
2022/04/10 03:52:46;;;;;;;;;1.00;1.00;;;;;3.40;80.17;-18555.50;4958787;28;11594;-69
2022/04/10 03:55:13;;;;;;;;;0.25;0.25;;;;;3.32;80.31;-18553.22;4967160;28;11483;-69
2022/04/10 03:57:40;;;;;;;;;4.00;1.50;;;;;3.32;80.14;-18553.09;4981586;28;11457;-69
2022/04/10 04:00:07;;;;;;;;;0.75;0.00;;;;;3.31;80.66;-18552.78;4975699;28;12305;-69
2022/04/10 04:02:42;;;;;;;;;0.25;0.25;;;;;3.33;80.50;-18553.38;4973033;28;11478;-69
2022/04/10 04:05:16;;;;;;;;;0.00;0.00;;;;;3.26;80.47;-18551.25;4977024;28;11537;-69
2022/04/10 04:07:43;;;;;;;;;0.75;0.75;;;;;3.32;80.42;-18553.09;4978573;28;11447;-69
2022/04/10 04:10:10;;;;;;;;;0.25;0.25;;;;;3.34;80.34;-18553.84;4987004;28;11495;-69
2022/04/10 04:12:37;;;;;;;;;0.00;0.00;;;;;3.32;80.35;-18553.22;4975547;28;11574;-69
2022/04/10 04:15:04;;;;;;;;;0.00;0.00;;;;;3.29;80.44;-18552.31;4979279;28;12191;-69
2022/04/10 04:17:31;;;;;;;;;0.00;0.00;;;;;3.30;80.93;-18552.63;4987504;28;11124;-69
2022/04/10 04:19:58;;;;;;;;;0.00;0.00;;;;;3.33;81.36;-18553.38;4990025;28;12243;-69
2022/04/10 04:22:24;;;;;;;;;0.75;0.75;;;;;3.33;81.44;-18553.53;4975386;28;11529;-68
2022/04/10 04:24:51;;;;;;;;;1.50;0.50;;;;;3.27;81.11;-18551.56;4970360;28;11511;-69
2022/04/10 04:27:17;;;;;;;;;3.75;1.00;;;;;3.30;81.74;-18552.47;4986952;28;11466;-69
2022/04/10 04:29:44;;;;;;;;;1.00;0.00;;;;;3.30;81.27;-18552.63;4973054;28;11451;-68
2022/04/10 04:32:10;;;;;;;;;2.00;1.00;;;;;3.27;81.32;-18551.56;4989683;28;11467;-69
2022/04/10 04:34:37;;;;;;;;;0.00;0.00;;;;;3.23;81.37;-18550.50;4974987;28;11470;-69
2022/04/10 04:37:04;;;;;;;;;1.00;1.00;;;;;3.25;81.33;-18551.13;4989365;28;11470;-69
2022/04/10 04:39:31;;;;;;;;;0.00;0.00;;;;;3.23;81.41;-18550.50;4972177;28;11486;-68
2022/04/10 04:41:58;;;;;;;;;0.00;0.00;;;;;3.22;81.10;-18550.06;4975802;28;11543;-68
2022/04/10 04:44:24;;;;;;;;;0.00;0.00;;;;;3.19;81.59;-18549.28;4973359;28;11450;-69
2022/04/10 04:46:51;;;;;;;;;0.00;0.00;;;;;3.19;81.35;-18549.13;4982395;28;11455;-69
2022/04/10 04:49:18;;;;;;;;;0.00;0.00;;;;;3.20;81.70;-18549.44;4971740;28;11453;-69
2022/04/10 04:51:45;;;;;;;;;0.00;0.00;;;;;3.19;81.41;-18549.28;4977098;28;12187;-68
2022/04/10 04:54:12;;;;;;;;;0.00;0.00;;;;;3.18;80.94;-18549.00;4987961;28;11543;-69
2022/04/10 04:56:40;;;;;;;;;0.00;0.00;;;;;3.21;81.33;-18549.91;4989241;28;11467;-69
2022/04/10 04:59:07;;;;;;;;;1.00;1.00;;;;;3.28;81.54;-18551.88;4987800;28;11451;-68
2022/04/10 05:01:35;;;;;;;;;0.00;0.00;;;;;3.29;81.26;-18552.16;4981053;28;11467;-69
2022/04/10 05:04:02;;;;;;;;;0.00;0.00;;;;;3.30;80.95;-18552.63;4988751;28;11592;-69
2022/04/10 05:06:29;;;;;;;;;0.00;0.00;;;;;3.36;81.06;-18554.28;4981097;28;11468;-68
2022/04/10 05:08:56;;;;;;;;;0.00;0.00;;;;;3.42;81.54;-18556.09;4972535;28;11467;-69
2022/04/10 05:11:23;;;;;;;;;0.00;0.00;;;;;3.55;81.32;-18559.91;4974263;28;11582;-69
2022/04/10 05:13:49;;;;;;;;;0.00;0.00;;;;;3.62;81.07;-18562.16;4969268;28;11499;-68
2022/04/10 05:16:16;;;;;;;;;0.00;0.00;;;;;3.65;81.58;-18562.91;4958991;28;11471;-69
2022/04/10 05:18:47;;;;;;;;;0.00;0.00;;;;;3.58;81.07;-18560.81;4988515;28;11504;-69
2022/04/10 05:21:14;;;;;;;;;0.00;0.00;;;;;3.60;82.25;-18561.56;4988114;28;11480;-68
2022/04/10 05:23:41;;;;;;;;;0.00;0.00;;;;;3.71;84.17;-18564.88;4985263;28;11595;-68
2022/04/10 05:26:12;;;;;;;;;0.00;0.00;;;;;3.64;85.54;-18562.75;4984824;28;11468;-69
2022/04/10 05:28:42;;;;;;;;;0.00;0.00;;;;;3.59;87.55;-18561.09;4972263;28;11448;-69
2022/04/10 05:31:09;;;;;;;;;0.50;0.50;;;;;3.64;89.49;-18562.63;4980386;28;11492;-68
2022/04/10 05:33:39;;;;;;;;;0.75;0.75;;;;;3.75;90.26;-18565.78;4971934;28;11483;-69
2022/04/10 05:36:06;;;;;;;;;0.00;0.00;;;;;3.70;90.51;-18564.59;4988268;28;11473;-69
2022/04/10 05:38:35;;;;;;;;;0.00;0.00;;;;;3.68;91.31;-18563.97;4980555;28;11562;-69
2022/04/10 05:41:07;;;;;;;;;0.00;0.00;;;;;3.66;91.98;-18563.22;4988776;28;11549;-69
2022/04/10 05:43:38;;;;;;;;;0.25;0.25;;;;;3.63;92.35;-18562.47;4970896;28;11487;-69
2022/04/10 05:46:04;;;;;;;;;0.00;0.00;;;;;3.77;93.10;-18566.41;4973974;28;11455;-69
2022/04/10 05:48:33;;;;;;;;;0.25;0.00;;;;;3.64;92.20;-18562.75;4955102;28;12252;-69
2022/04/10 05:50:59;;;;;;;;;0.00;0.00;;;;;3.73;92.33;-18565.19;4973345;28;11448;-69
2022/04/10 05:53:30;;;;;;;;;0.00;0.00;;;;;3.82;92.65;-18567.91;4987536;28;12189;-69
2022/04/10 05:55:57;;;;;;;;;0.00;0.00;;;;;3.91;92.43;-18570.63;4972306;28;11496;-69
2022/04/10 05:58:26;;;;;;;;;0.00;0.00;;;;;4.04;92.31;-18574.41;4971158;28;11500;-69
2022/04/10 06:00:55;;;;;;;;;0.00;0.00;;;;;4.12;92.05;-18576.84;4987975;28;11451;-69
2022/04/10 06:03:23;;;;;;;;;0.00;0.00;;;;;4.22;91.25;-18580.03;4972029;28;11478;-69
2022/04/10 06:05:52;;;;;;;;;0.00;0.00;;;;;4.97;89.57;-18602.25;4971241;28;11487;-69
2022/04/10 06:08:27;;;;;;;;;0.00;0.00;;;;;5.73;84.83;-18624.94;4980119;28;11629;-69
2022/04/10 06:10:54;;;;;;;;;0.00;0.00;;;;;5.91;82.45;-18630.09;4979285;28;11532;-69
2022/04/10 06:13:21;;;;;;;;;0.50;0.50;;;;;5.54;81.89;-18619.34;4971569;28;11466;-68
2022/04/10 06:16:09;;;;;;;;;0.00;0.00;;;;;5.68;81.04;-18623.44;4971608;28;11056;-69
2022/04/10 06:18:37;;;;;;;;;0.00;0.00;;;;;6.00;80.68;-18632.97;4971725;28;11912;-69
2022/04/10 06:21:05;;;;;;;;;0.00;0.00;;;;;5.98;77.84;-18632.22;4971292;28;11127;-69
2022/04/10 06:23:33;;;;;;;;;1.00;1.00;;;;;6.16;78.41;-18637.81;4969602;28;11133;-68
2022/04/10 06:26:05;;;;;;;;;0.50;0.50;;;;;6.41;78.23;-18645.06;4986937;28;11042;-69
2022/04/10 06:28:32;;;;;;;;;0.50;0.50;;;;;6.36;77.84;-18643.69;4980051;28;11017;-69
2022/04/10 06:31:02;;;;;;;;;1.00;0.00;;;;;6.48;77.33;-18647.19;4987326;28;11614;-69
2022/04/10 06:33:32;;;;;;;;;0.00;0.00;;;;;6.59;77.22;-18650.34;4987954;28;10847;-69
2022/04/10 06:35:59;;;;;;;;;0.00;0.00;;;;;6.79;76.93;-18656.56;4987000;28;10835;-69
2022/04/10 06:38:25;;;;;;;;;0.00;0.00;;;;;6.78;77.36;-18656.09;4982772;28;10837;-68
2022/04/10 06:41:01;;;;;;;;;0.00;0.00;;;;;6.92;76.54;-18660.19;4967870;28;10813;-69
2022/04/10 06:43:27;;;;;;;;;0.00;0.00;;;;;6.78;76.59;-18656.25;4972795;28;11586;-69
2022/04/10 06:46:17;;;;;;;;;0.50;0.00;;;;;6.67;77.51;-18652.91;4971344;28;10770;-69
2022/04/10 06:48:56;;;;;;;;;0.00;0.00;;;;;6.98;77.24;-18662.00;4973800;28;10922;-69
2022/04/10 06:51:22;;;;;;;;;2.00;0.00;;;;;7.00;76.12;-18662.75;4986582;28;10755;-69
2022/04/10 06:53:50;;;;;;;;;1.00;1.00;;;;;7.12;77.66;-18666.22;4986996;28;10988;-70
2022/04/10 06:56:17;;;;;;;;;1.00;0.00;;;;;6.66;77.47;-18652.63;4985505;28;10847;-70
2022/04/10 06:58:43;;;;;;;;;0.00;0.00;;;;;6.33;77.40;-18642.66;4968236;28;10694;-69
2022/04/10 07:01:10;;;;;;;;;0.50;0.50;;;;;6.20;78.98;-18638.72;4976920;28;10651;-70
2022/04/10 07:03:36;;;;;;;;;0.00;0.00;;;;;6.14;78.65;-18637.06;4980157;28;11593;-70
2022/04/10 07:06:07;;;;;;;;;0.00;0.00;;;;;5.95;78.66;-18631.47;4974148;28;10701;-71
2022/04/10 07:08:37;;;;;;;;;0.00;0.00;;;;;5.90;79.41;-18629.94;4954256;28;11772;-71
2022/04/10 07:11:04;;;;;;;;;0.00;0.00;;;;;5.99;79.63;-18632.53;4957718;28;10772;-68
2022/04/10 07:13:31;;;;;;;;;1.00;1.00;;;;;6.16;79.05;-18637.66;4984288;28;10906;-70
2022/04/10 07:15:58;;;;;;;;;0.75;0.75;;;;;6.11;80.05;-18636.28;4970198;28;11579;-70
2022/04/10 07:18:25;;;;;;;;;0.00;0.00;;;;;6.25;80.19;-18640.22;4985102;28;10804;-70
2022/04/10 07:20:56;;;;;;;;;0.00;0.00;;;;;6.84;79.81;-18657.75;4966880;28;10877;-70
2022/04/10 07:23:43;;;;;;;;;0.00;0.00;;;;;7.46;78.90;-18676.19;4981046;28;10772;-70
2022/04/10 07:26:16;;;;;;;;;0.75;0.00;;;;;7.85;77.16;-18687.97;4983863;28;10884;-71
2022/04/10 07:28:48;;;;;;;;;0.75;0.75;;;;;8.05;73.54;-18693.72;4984976;28;10530;-70
2022/04/10 07:31:17;;;;;;;;;1.00;1.00;;;;;8.21;73.12;-18698.56;4986491;28;10762;-70
2022/04/10 07:33:43;;;;;;;;;1.00;0.00;;;;;8.26;73.26;-18700.22;4970006;28;11230;-70
2022/04/10 07:36:23;;;;;;;;;0.00;0.00;;;;;8.69;72.62;-18712.91;4986423;28;10457;-70
2022/04/10 07:38:50;;;;;;;;;0.00;0.00;;;;;8.81;71.68;-18716.53;4970251;28;10518;-69
2022/04/10 07:41:25;;;;;;;;;0.00;0.00;;;;;8.87;70.44;-18718.19;4970171;28;10525;-70
2022/04/10 07:43:53;;;;;;;;;0.50;0.50;;;;;8.92;70.45;-18719.69;4969696;28;10372;-70
2022/04/10 07:49:11;;;;;;;;;1.00;0.00;;;;;8.66;68.98;-18712.00;4968925;28;10385;-70
2022/04/10 07:51:47;;;;;;;;;0.00;0.00;;;;;9.11;68.16;-18725.44;4986281;28;10402;-70
2022/04/10 07:54:21;;;;;;;;;2.00;0.50;;;;;9.37;67.86;-18733.13;4969386;28;10467;-70
2022/04/10 07:56:49;;;;;;;;;0.75;0.75;;;;;8.75;66.87;-18714.72;4964340;28;10511;-70
2022/04/10 07:59:23;;;;;;;;;3.50;0.25;;;;;9.10;66.77;-18725.00;4967324;28;10314;-70
2022/04/10 08:01:50;;;;;;;;;0.00;0.00;;;;;9.22;65.72;-18728.75;4976848;28;10233;-70
2022/04/10 08:04:23;;;;;;;;;2.00;2.00;;;;;9.25;64.88;-18729.53;4964884;28;10321;-69
2022/04/10 08:07:08;;;;;;;;;0.00;0.00;;;;;8.92;65.01;-18719.84;4963656;28;10389;-70
2022/04/10 08:09:35;;;;;;;;;1.00;0.00;;;;;8.98;63.65;-18721.38;4951070;28;10236;-71
2022/04/10 08:12:01;;;;;;;;;1.00;1.00;;;;;8.75;64.59;-18714.56;4962961;28;10227;-70
2022/04/10 08:14:28;;;;;;;;;0.00;0.00;;;;;8.62;62.86;-18710.94;4968029;28;10187;-70
2022/04/10 08:16:54;;;;;;;;;1.00;0.00;;;;;9.07;60.50;-18724.09;4972264;28;10434;-71
2022/04/10 08:19:21;;;;;;;;;0.00;0.00;;;;;9.06;60.54;-18723.78;4971391;28;10070;-70
2022/04/10 08:21:47;;;;;;;;;0.00;0.00;;;;;9.26;59.06;-18729.81;4986001;28;10244;-71
2022/04/10 08:24:14;;;;;;;;;1.00;0.00;;;;;9.60;58.60;-18739.78;4967846;28;10185;-69
2022/04/10 08:26:40;;;;;;;;;0.00;0.00;;;;;9.31;57.66;-18731.34;4966400;28;10231;-71
2022/04/10 08:29:07;;;;;;;;;0.00;0.00;;;;;9.98;58.75;-18751.25;4986186;28;10089;-71
2022/04/10 08:31:33;;;;;;;;;0.00;0.00;;;;;10.14;56.58;-18756.09;4969763;28;10162;-71
2022/04/10 08:34:00;;;;;;;;;1.50;1.50;;;;;10.57;56.55;-18768.63;4969687;28;10161;-71
2022/04/10 08:36:26;;;;;;;;;0.00;0.00;;;;;10.09;54.80;-18754.44;4970631;28;10898;-69
2022/04/10 08:38:53;;;;;;;;;1.00;1.00;;;;;9.60;56.54;-18739.94;4974632;28;10184;-71
2022/04/10 08:41:20;;;;;;;;;0.00;0.00;;;;;9.60;56.62;-18739.78;4998685;28;10081;-71
2022/04/10 08:43:48;;;;;;;;;1.25;0.00;;;;;9.15;56.72;-18726.66;4975752;28;10253;-70
2022/04/10 08:46:18;;;;;;;;;2.50;0.00;;;;;9.10;56.80;-18725.13;4971099;28;10003;-71
2022/04/10 08:48:44;;;;;;;;;0.00;0.00;;;;;9.23;55.96;-18729.06;4972151;28;10093;-72
2022/04/10 08:51:11;;;;;;;;;0.00;0.00;;;;;10.17;56.43;-18756.84;4975470;28;10182;-70
2022/04/10 08:53:38;;;;;;;;;1.00;1.00;;;;;9.30;53.86;-18730.88;4975443;28;10180;-71
2022/04/10 08:56:08;;;;;;;;;0.25;0.25;;;;;9.84;52.57;-18747.03;4975499;28;10087;-72
2022/04/10 08:58:34;;;;;;;;;0.00;0.00;;;;;9.94;53.50;-18749.91;4988725;28;10155;-71
2022/04/10 09:01:01;;;;;;;;;0.00;0.00;;;;;10.40;51.48;-18763.63;4995331;28;11084;-71
2022/04/10 09:03:28;;;;;;;;;0.00;0.00;;;;;10.87;50.24;-18777.50;4994344;28;9945;-69
2022/04/10 09:06:06;;;;;;;;;1.00;1.00;;;;;10.88;50.14;-18777.81;4979757;28;10206;-72
2022/04/10 09:08:33;;;;;;;;;0.00;0.00;;;;;11.19;48.98;-18787.03;4989259;28;10146;-72
2022/04/10 09:11:04;;;;;;;;;0.25;0.00;;;;;11.27;50.74;-18789.44;4976179;28;9977;-70
2022/04/10 09:13:34;;;;;;;;;0.00;0.00;;;;;10.85;49.88;-18776.91;4979510;28;9777;-71
2022/04/10 09:16:18;;;;;;;;;0.00;0.00;;;;;10.06;51.04;-18753.53;4975987;28;9965;-70
2022/04/10 09:18:47;;;;;;;;;0.00;0.00;;;;;10.77;50.72;-18774.66;4976941;28;9917;-70
2022/04/10 09:21:14;;;;;;;;;0.00;0.00;;;;;11.21;49.74;-18787.78;4974287;28;9767;-69
2022/04/10 09:23:41;;;;;;;;;0.00;0.00;;;;;11.31;47.70;-18790.78;4959060;28;9873;-71
2022/04/10 09:26:07;;;;;;;;;0.00;0.00;;;;;11.56;47.43;-18798.19;4962080;28;9913;-69
2022/04/10 09:28:49;;;;;;;;;1.25;0.00;;;;;12.30;47.39;-18820.03;4975197;28;9777;-70
2022/04/10 09:31:33;;;;;;;;;0.00;0.00;;;;;12.06;45.21;-18812.94;4959868;28;10582;-70
2022/04/10 09:34:02;;;;;;;;;0.00;0.00;;;;;12.00;44.18;-18811.16;4967827;28;9717;-72
2022/04/10 09:36:37;;;;;;;;;0.00;0.00;;;;;12.07;45.07;-18813.09;4969183;28;9609;-71
2022/04/10 09:39:15;;;;;;;;;0.75;0.75;;;;;11.32;46.12;-18790.94;4972536;28;9619;-71
2022/04/10 09:41:45;;;;;;;;;1.00;1.00;;;;;11.45;44.25;-18794.72;4975392;28;9458;-71
2022/04/10 09:44:19;;;;;;;;;0.00;0.00;;;;;12.09;44.83;-18813.72;4992644;28;9616;-71
2022/04/10 09:47:06;;;;;;;;;0.00;0.00;;;;;12.04;41.90;-18812.34;4979353;28;9618;-72
2022/04/10 09:49:36;;;;;;;;;0.00;0.00;;;;;12.16;42.99;-18815.81;4989023;28;9624;-71
2022/04/10 09:52:07;;;;;;;;;0.50;0.50;;;;;12.48;44.18;-18825.31;4980534;28;9780;-70
2022/04/10 09:54:39;;;;;;;;;0.00;0.00;;;;;12.37;43.90;-18822.16;4975576;28;9534;-71
2022/04/10 09:57:14;;;;;;;;;0.00;0.00;;;;;13.02;42.06;-18841.44;4984831;28;9621;-71
2022/04/10 09:59:46;;;;;;;;;0.00;0.00;;;;;12.99;41.99;-18840.38;4976016;28;9571;-72
2022/04/10 10:02:14;;;;;;;;;2.00;0.50;;;;;12.85;42.47;-18836.31;4977336;28;9635;-71
2022/04/10 10:04:43;;;;;;;;;0.00;0.00;;;;;12.14;43.31;-18815.22;4982896;28;9559;-69
2022/04/10 10:07:11;;;;;;;;;0.50;0.00;;;;;12.16;43.43;-18815.81;4989346;28;9371;-71
2022/04/10 10:09:39;;;;;;;;;0.00;0.00;;;;;12.70;43.29;-18831.94;4972179;28;10167;-71
2022/04/10 10:12:06;;;;;;;;;0.00;0.00;;;;;13.07;40.23;-18842.78;4978340;28;9473;-70
2022/04/10 10:14:35;;;;;;;;;0.50;0.00;;;;;12.87;41.49;-18836.91;4977931;28;9381;-70
2022/04/10 10:17:04;;;;;;;;;0.00;0.00;;;;;12.48;42.36;-18825.31;4995590;28;9562;-71
2022/04/10 10:19:35;;;;;;;;;2.00;0.00;;;;;12.26;42.95;-18818.84;4982292;28;9298;-71
2022/04/10 10:22:07;;;;;;;;;0.00;0.00;;;;;13.24;42.32;-18847.91;4984390;28;9376;-71
2022/04/10 10:24:52;;;;;;;;;0.00;0.00;;;;;12.38;42.92;-18822.44;4983820;28;9391;-70
2022/04/10 10:27:37;;;;;;;;;0.50;0.25;;;;;11.63;44.43;-18800.13;4965165;28;9271;-71
2022/04/10 10:30:19;;;;;;;;;0.00;0.00;;;;;11.86;42.96;-18806.91;4970440;28;10725;-72
2022/04/10 10:32:49;;;;;;;;;1.00;1.00;;;;;12.42;42.75;-18823.66;4975954;28;9551;-71
2022/04/10 10:35:48;;;;;;;;;0.00;0.00;;;;;12.13;41.42;-18815.06;4975601;28;9615;-72
2022/04/10 10:38:23;;;;;;;;;0.00;0.00;;;;;12.07;40.63;-18813.09;4977280;28;9510;-71
2022/04/10 10:40:53;;;;;;;;;0.25;0.25;;;;;10.97;42.11;-18780.53;4980040;28;9667;-71
2022/04/10 10:43:23;;;;;;;;;2.00;1.00;;;;;10.83;43.34;-18776.31;4989525;28;9618;-71
2022/04/10 10:45:54;;;;;;;;;0.00;0.00;;;;;10.85;43.92;-18777.06;4989699;28;9536;-71
2022/04/10 10:48:42;;;;;;;;;0.00;0.00;;;;;11.87;41.28;-18807.38;4982480;28;9592;-71
2022/04/10 10:51:09;;;;;;;;;0.00;0.00;;;;;12.21;40.81;-18817.47;4997061;28;9776;-71
2022/04/10 10:53:59;;;;;;;;;0.00;0.00;;;;;12.86;40.01;-18836.75;4979845;28;9810;-71
2022/04/10 10:56:36;;;;;;;;;0.00;0.00;;;;;12.57;39.71;-18828.19;4972907;28;9808;-72
2022/04/10 10:59:29;;;;;;;;;0.00;0.00;;;;;13.15;40.91;-18845.22;4977163;28;9537;-72
2022/04/10 11:02:10;;;;;;;;;0.00;0.00;;;;;13.24;39.47;-18848.06;4974020;28;9618;-72
2022/04/10 11:04:57;;;;;;;;;0.00;0.00;;;;;12.99;40.13;-18840.53;4975377;28;9394;-70
2022/04/10 11:07:28;;;;;;;;;0.67;0.00;;;;;12.89;39.26;-18837.69;4977232;28;9384;-72
2022/04/10 11:10:03;;;;;;;;;1.67;0.67;;;;;12.39;40.50;-18822.75;4997594;28;9330;-71
2022/04/10 11:12:32;;;;;;;;;0.00;0.00;;;;;11.85;40.38;-18806.78;4997519;28;9296;-72
2022/04/10 11:15:17;;;;;;;;;1.00;0.00;;;;;11.25;40.59;-18788.97;4999659;28;9305;-71
2022/04/10 11:17:44;;;;;;;;;0.00;0.00;;;;;11.84;41.79;-18806.31;4959764;28;9248;-72
2022/04/10 11:20:12;;;;;;;;;1.00;0.00;;;;;12.00;41.66;-18811.28;4966355;28;9384;-73
2022/04/10 11:22:44;;;;;;;;;0.00;0.00;;;;;12.77;40.94;-18834.06;4969056;28;9588;-72
2022/04/10 11:25:11;;;;;;;;;0.50;0.00;;;;;13.25;39.38;-18848.22;4971062;28;9631;-73
2022/04/10 11:27:57;;;;;;;;;1.00;0.00;;;;;13.07;39.79;-18842.78;4970496;28;9538;-73
2022/04/10 11:30:27;;;;;;;;;0.00;0.00;;;;;13.28;39.76;-18848.97;4952930;28;9470;-72
2022/04/10 11:32:57;;;;;;;;;0.00;0.00;;;;;12.61;39.16;-18829.22;4984700;28;9420;-72
2022/04/10 11:35:34;;;;;;;;;0.00;0.00;;;;;13.40;38.80;-18852.75;4985438;28;9581;-73
2022/04/10 11:38:12;;;;;;;;;0.00;0.00;;;;;13.39;38.96;-18852.44;4971380;28;9252;-73
2022/04/10 11:40:41;;;;;;;;;0.00;0.00;;;;;13.55;39.17;-18857.09;4971262;28;9266;-72
2022/04/10 11:43:12;;;;;;;;;1.00;1.00;;;;;12.93;39.56;-18838.88;4966652;28;9259;-70
2022/04/10 11:45:40;;;;;;;;;0.00;0.00;;;;;12.90;38.31;-18837.97;4971241;28;9435;-72
2022/04/10 11:48:08;;;;;;;;;0.00;0.00;;;;;13.39;39.29;-18852.44;4972595;28;9296;-72